createdAt,value
2022-12-07T00:01:31.157Z,69.13
2022-12-07T00:04:05.880Z,68.70
2022-12-07T00:06:34.799Z,69.04
2022-12-07T00:09:03.155Z,69.01
2022-12-07T00:11:32.730Z,68.86
2022-12-07T00:14:03.262Z,68.58
2022-12-07T00:16:33.699Z,69.50
2022-12-07T00:19:02.052Z,68.99
2022-12-07T00:21:32.296Z,68.17
2022-12-07T00:24:01.729Z,68.47
2022-12-07T00:26:32.005Z,68.57
2022-12-07T00:29:02.963Z,68.85
2022-12-07T00:31:34.392Z,68.87
2022-12-07T00:34:03.344Z,68.67
2022-12-07T00:36:31.436Z,68.43
2022-12-07T00:39:02.079Z,68.50
2022-12-07T00:41:30.762Z,69.35
2022-12-07T00:43:59.245Z,69.19
2022-12-07T00:46:29.147Z,68.39
2022-12-07T00:48:57.305Z,67.98
2022-12-07T00:51:27.264Z,67.84
2022-12-07T00:53:55.563Z,68.91
2022-12-07T00:56:26.226Z,68.42
2022-12-07T00:58:56.721Z,69.07
2022-12-07T01:01:25.152Z,69.21
2022-12-07T01:03:54.626Z,68.54
2022-12-07T01:06:24.633Z,68.75
2022-12-07T01:08:53.662Z,69.31
2022-12-07T01:11:24.075Z,69.03
2022-12-07T01:13:52.976Z,69.51
2022-12-07T01:16:22.276Z,68.55
2022-12-07T01:18:52.489Z,68.77
2022-12-07T01:21:23.910Z,69.08
2022-12-07T01:23:52.559Z,68.58
2022-12-07T01:26:22.394Z,68.84
2022-12-07T01:28:50.523Z,68.61
2022-12-07T01:31:20.497Z,68.82
2022-12-07T01:33:49.893Z,69.15
2022-12-07T01:36:22.811Z,69.00
2022-12-07T01:38:53.702Z,68.28
2022-12-07T01:41:23.448Z,67.72
2022-12-07T01:44:19.911Z,68.83
2022-12-07T01:46:49.645Z,69.12
2022-12-07T01:49:34.360Z,69.41
2022-12-07T01:52:18.163Z,69.28
2022-12-07T01:54:48.316Z,68.70
2022-12-07T01:57:18.252Z,68.83
2022-12-07T01:59:47.901Z,69.86
2022-12-07T02:02:22.410Z,68.79
2022-12-07T02:04:53.142Z,70.25
2022-12-07T02:07:23.325Z,71.06
2022-12-07T02:09:51.345Z,70.08
2022-12-07T02:12:19.818Z,69.62
2022-12-07T02:14:48.245Z,69.89
2022-12-07T02:17:26.185Z,69.14
2022-12-07T02:20:25.599Z,69.12
2022-12-07T02:23:31.588Z,70.07
2022-12-07T02:26:26.202Z,69.97
2022-12-07T02:29:12.688Z,69.62
2022-12-07T02:31:47.927Z,69.29
2022-12-07T02:34:24.136Z,69.88
2022-12-07T02:36:57.975Z,69.66
2022-12-07T02:39:33.531Z,69.17
2022-12-07T02:42:09.890Z,68.80
2022-12-07T02:44:39.605Z,68.99
2022-12-07T02:47:11.792Z,70.03
2022-12-07T02:49:41.312Z,70.17
2022-12-07T02:52:09.306Z,70.71
2022-12-07T02:54:37.709Z,70.39
2022-12-07T02:57:18.408Z,70.16
2022-12-07T03:00:02.254Z,69.54
2022-12-07T03:02:38.540Z,68.74
2022-12-07T03:05:23.758Z,69.02
2022-12-07T03:08:03.112Z,69.25
2022-12-07T03:10:40.653Z,70.39
2022-12-07T03:13:14.592Z,70.48
2022-12-07T03:15:49.711Z,70.51
2022-12-07T03:18:22.803Z,70.11
2022-12-07T03:20:55.607Z,69.85
2022-12-07T03:23:27.512Z,70.51
2022-12-07T03:26:01.899Z,70.22
2022-12-07T03:28:35.762Z,68.72
2022-12-07T03:31:12.823Z,69.00
2022-12-07T03:33:46.474Z,69.02
2022-12-07T03:36:19.553Z,69.51
2022-12-07T03:38:52.741Z,69.25
2022-12-07T03:41:25.023Z,68.86
2022-12-07T03:43:54.022Z,69.06
2022-12-07T03:46:35.046Z,68.46
2022-12-07T03:49:10.243Z,68.49
2022-12-07T03:51:43.099Z,69.02
2022-12-07T03:54:15.773Z,68.25
2022-12-07T03:56:46.687Z,68.24
2022-12-07T03:59:16.518Z,68.64
2022-12-07T04:01:47.375Z,68.72
2022-12-07T04:04:15.478Z,68.76
2022-12-07T04:06:43.809Z,69.63
2022-12-07T04:09:11.996Z,68.89
2022-12-07T04:11:40.180Z,70.09
2022-12-07T04:14:23.085Z,69.41
2022-12-07T04:16:54.266Z,69.10
2022-12-07T04:19:25.165Z,68.69
2022-12-07T04:21:53.176Z,68.47
2022-12-07T04:24:22.068Z,68.50
2022-12-07T04:26:50.545Z,68.80
2022-12-07T04:29:19.585Z,68.18
2022-12-07T04:31:47.945Z,67.65
2022-12-07T04:34:18.771Z,68.81
2022-12-07T04:36:47.541Z,67.90
2022-12-07T04:39:23.357Z,68.36
2022-12-07T04:41:52.131Z,67.32
2022-12-07T04:44:21.188Z,68.69
2022-12-07T04:46:49.802Z,67.96
2022-12-07T04:49:20.866Z,67.71
2022-12-07T04:51:49.630Z,68.68
2022-12-07T04:54:18.477Z,67.32
2022-12-07T04:56:46.773Z,67.86
2022-12-07T04:59:15.629Z,67.21
2022-12-07T05:01:43.995Z,67.19
2022-12-07T05:04:12.228Z,67.24
2022-12-07T05:06:41.816Z,66.80
2022-12-07T05:09:10.325Z,66.75
2022-12-07T05:11:41.473Z,67.67
2022-12-07T05:14:14.475Z,66.97
2022-12-07T05:16:43.773Z,67.56
2022-12-07T05:19:12.707Z,67.42
2022-12-07T05:21:42.387Z,67.05
2022-12-07T05:24:13.863Z,67.67
2022-12-07T05:26:42.185Z,66.69
2022-12-07T05:29:12.777Z,67.82
2022-12-07T05:31:40.877Z,67.24
2022-12-07T05:34:09.172Z,67.17
2022-12-07T05:36:38.279Z,67.09
2022-12-07T05:39:08.278Z,67.08
2022-12-07T05:41:54.191Z,68.83
2022-12-07T05:44:22.399Z,68.96
2022-12-07T05:46:50.554Z,67.49
2022-12-07T05:49:18.863Z,68.56
2022-12-07T05:51:46.946Z,67.85
2022-12-07T05:54:16.259Z,68.41
2022-12-07T05:56:44.292Z,67.58
2022-12-07T05:59:24.931Z,68.86
2022-12-07T06:01:53.773Z,68.86
2022-12-07T06:04:22.792Z,69.20
2022-12-07T06:06:51.559Z,68.03
2022-12-07T06:09:21.832Z,68.50
2022-12-07T06:12:07.405Z,68.04
2022-12-07T06:14:36.069Z,67.39
2022-12-07T06:17:04.622Z,67.48
2022-12-07T06:19:32.694Z,67.57
2022-12-07T06:22:01.020Z,67.78
2022-12-07T06:26:59.254Z,68.82
2022-12-07T06:29:27.435Z,69.34
2022-12-07T06:31:55.487Z,68.15
2022-12-07T06:34:25.225Z,68.48
2022-12-07T06:36:56.013Z,68.34
2022-12-07T06:39:26.303Z,68.31
2022-12-07T06:41:55.971Z,69.26
2022-12-07T06:44:24.511Z,69.30
2022-12-07T06:47:06.774Z,69.67
2022-12-07T06:49:40.718Z,69.17
2022-12-07T06:52:08.924Z,69.97
2022-12-07T06:54:37.061Z,69.29
2022-12-07T06:57:06.465Z,68.56
2022-12-07T06:59:34.399Z,69.03
2022-12-07T07:02:02.688Z,69.23
2022-12-07T07:04:30.812Z,68.39
2022-12-07T07:07:00.379Z,69.56
2022-12-07T07:09:28.785Z,68.68
2022-12-07T07:11:56.951Z,69.85
2022-12-07T07:14:26.397Z,69.03
2022-12-07T07:16:54.607Z,69.31
2022-12-07T07:19:23.125Z,69.27
2022-12-07T07:21:51.114Z,68.42
2022-12-07T07:24:19.091Z,69.35
2022-12-07T07:26:47.039Z,68.95
2022-12-07T07:29:15.122Z,68.25
2022-12-07T07:31:44.493Z,68.24
2022-12-07T07:34:12.629Z,68.48
2022-12-07T07:39:09.080Z,68.03
2022-12-07T07:41:37.163Z,67.62
2022-12-07T07:44:05.407Z,67.85
2022-12-07T07:46:34.350Z,67.22
2022-12-07T07:49:04.116Z,67.77
2022-12-07T07:51:32.418Z,67.82
2022-12-07T07:54:00.411Z,67.73
2022-12-07T07:56:28.736Z,67.77
2022-12-07T07:58:57.052Z,68.29
2022-12-07T08:01:25.049Z,68.20
2022-12-07T08:03:53.053Z,67.73
2022-12-07T08:06:22.496Z,67.40
2022-12-07T08:08:50.700Z,67.10
2022-12-07T08:11:18.712Z,67.25
2022-12-07T08:13:48.075Z,67.98
2022-12-07T08:16:16.548Z,67.78
2022-12-07T08:18:44.824Z,67.64
2022-12-07T08:21:15.110Z,67.44
2022-12-07T08:23:44.675Z,67.37
2022-12-07T08:26:14.552Z,66.67
2022-12-07T08:28:43.493Z,66.91
2022-12-07T08:31:14.996Z,67.35
2022-12-07T08:33:43.819Z,66.95
2022-12-07T08:36:14.158Z,66.94
2022-12-07T08:39:01.434Z,66.83
2022-12-07T08:41:33.502Z,68.10
2022-12-07T08:44:01.628Z,68.39
2022-12-07T08:46:35.660Z,68.69
2022-12-07T08:49:08.262Z,68.28
2022-12-07T08:51:36.458Z,67.79
2022-12-07T08:54:08.923Z,67.79
2022-12-07T08:56:37.587Z,67.65
2022-12-07T08:59:06.342Z,67.60
2022-12-07T09:01:34.693Z,67.83
2022-12-07T09:04:02.992Z,67.75
2022-12-07T09:06:31.504Z,67.40
2022-12-07T09:09:01.163Z,67.38
2022-12-07T09:11:30.830Z,66.96
2022-12-07T09:13:58.797Z,66.81
2022-12-07T09:16:26.920Z,66.78
2022-12-07T09:18:54.899Z,65.87
2022-12-07T09:21:22.813Z,65.70
2022-12-07T09:23:50.954Z,65.87
2022-12-07T09:26:18.934Z,65.27
2022-12-07T09:28:48.261Z,64.82
2022-12-07T09:31:25.206Z,64.91
2022-12-07T09:33:56.617Z,64.98
2022-12-07T09:36:24.831Z,64.93
2022-12-07T09:38:52.846Z,64.44
2022-12-07T09:41:21.488Z,63.92
2022-12-07T09:43:51.202Z,63.74
2022-12-07T09:46:21.759Z,63.05
2022-12-07T09:48:51.951Z,62.91
2022-12-07T09:51:25.055Z,63.63
2022-12-07T09:53:55.567Z,63.96
2022-12-07T09:56:24.870Z,63.93
2022-12-07T09:59:02.299Z,63.54
2022-12-07T10:01:33.297Z,63.39
2022-12-07T10:04:11.534Z,63.39
2022-12-07T10:06:40.040Z,63.59
2022-12-07T10:09:12.598Z,63.88
2022-12-07T10:12:03.839Z,63.47
2022-12-07T10:15:05.448Z,62.81
2022-12-07T10:17:36.610Z,62.51
2022-12-07T10:20:16.756Z,61.98
2022-12-07T10:22:57.363Z,61.79
2022-12-07T10:25:28.966Z,62.01
2022-12-07T10:28:02.342Z,61.46
2022-12-07T10:30:32.794Z,61.48
2022-12-07T10:33:00.930Z,61.89
2022-12-07T10:35:30.653Z,61.44
2022-12-07T10:38:00.658Z,61.67
2022-12-07T10:40:32.485Z,61.07
2022-12-07T10:43:19.923Z,60.84
2022-12-07T10:46:19.634Z,60.96
2022-12-07T10:48:57.132Z,61.17
2022-12-07T10:51:34.674Z,60.38
2022-12-07T10:54:16.178Z,61.36
2022-12-07T10:57:04.068Z,61.01
2022-12-07T10:59:47.928Z,60.90
2022-12-07T11:02:32.291Z,60.12
2022-12-07T11:05:10.018Z,60.54
2022-12-07T11:07:53.633Z,60.18
2022-12-07T11:10:31.863Z,60.13
2022-12-07T11:13:26.633Z,59.91
2022-12-07T11:16:18.083Z,59.30
2022-12-07T11:18:58.080Z,58.41
2022-12-07T11:21:32.282Z,58.17
2022-12-07T11:24:05.919Z,58.71
2022-12-07T11:26:48.924Z,59.37
2022-12-07T11:29:46.370Z,59.43
2022-12-07T11:32:22.542Z,59.47
2022-12-07T11:35:04.463Z,59.66
2022-12-07T11:40:19.313Z,60.48
2022-12-07T11:42:54.969Z,60.14
2022-12-07T11:45:28.878Z,60.66
2022-12-07T11:48:01.793Z,60.96
2022-12-07T11:50:35.866Z,61.27
2022-12-07T11:53:12.099Z,60.81
2022-12-07T11:55:48.319Z,61.37
2022-12-07T11:58:46.598Z,61.35
2022-12-07T12:01:28.665Z,61.19
2022-12-07T12:04:01.574Z,60.89
2022-12-07T12:06:31.047Z,60.45
2022-12-07T12:15:33.341Z,59.29
2022-12-07T12:18:33.664Z,58.43
2022-12-07T12:21:06.897Z,57.65
2022-12-07T12:23:43.455Z,58.46
2022-12-07T12:26:19.857Z,58.74
2022-12-07T12:28:56.769Z,59.18
2022-12-07T12:31:45.906Z,59.50
2022-12-07T12:34:45.412Z,58.91
2022-12-07T12:37:46.912Z,58.86
2022-12-07T12:40:53.383Z,59.07
2022-12-07T12:43:47.181Z,59.18
2022-12-07T12:46:50.757Z,58.86
2022-12-07T12:49:46.386Z,59.20
2022-12-07T12:52:53.628Z,58.80
2022-12-07T12:55:47.806Z,58.59
2022-12-07T12:58:50.262Z,58.19
2022-12-07T13:01:46.002Z,57.38
2022-12-07T13:04:27.821Z,56.30
2022-12-07T13:06:56.194Z,56.33
2022-12-07T13:09:28.132Z,56.51
2022-12-07T13:12:04.052Z,56.81
2022-12-07T13:14:56.181Z,56.17
2022-12-07T13:18:03.734Z,55.88
2022-12-07T13:20:52.458Z,55.25
2022-12-07T13:23:24.615Z,55.61
2022-12-07T13:26:01.820Z,54.97
2022-12-07T13:28:37.287Z,54.56
2022-12-07T13:31:17.969Z,54.20
2022-12-07T13:33:48.633Z,54.20
2022-12-07T13:36:22.065Z,54.05
2022-12-07T13:38:56.743Z,54.29
2022-12-07T13:41:26.584Z,54.50
2022-12-07T13:44:02.491Z,54.16
2022-12-07T13:46:42.644Z,54.36
2022-12-07T13:49:22.373Z,53.66
2022-12-07T13:51:51.342Z,53.57
2022-12-07T13:54:20.554Z,54.57
2022-12-07T13:56:52.794Z,54.85
2022-12-07T13:59:23.222Z,53.68
2022-12-07T14:01:52.557Z,53.92
2022-12-07T14:04:33.245Z,53.68
2022-12-07T14:07:02.860Z,53.48
2022-12-07T14:09:31.840Z,53.52
2022-12-07T14:12:00.881Z,53.21
2022-12-07T14:14:36.578Z,53.28
2022-12-07T14:17:17.163Z,53.20
2022-12-07T14:19:53.349Z,52.92
2022-12-07T14:22:30.925Z,53.34
2022-12-07T14:25:13.875Z,53.52
2022-12-07T14:27:51.212Z,53.10
2022-12-07T14:30:20.643Z,53.30
2022-12-07T14:32:52.401Z,52.40
2022-12-07T14:35:22.081Z,52.36
2022-12-07T14:37:51.473Z,52.04
2022-12-07T14:40:22.127Z,52.06
2022-12-07T14:42:53.687Z,51.75
2022-12-07T14:45:23.609Z,51.85
2022-12-07T14:53:39.025Z,52.63
2022-12-07T14:56:07.659Z,53.48
2022-12-07T14:58:35.733Z,54.81
2022-12-07T15:01:03.851Z,55.51
2022-12-07T15:03:35.649Z,55.83
2022-12-07T15:06:06.475Z,56.30
2022-12-07T15:08:34.701Z,57.23
2022-12-07T15:11:03.752Z,56.86
2022-12-07T15:13:49.237Z,57.01
2022-12-07T15:16:22.109Z,56.70
2022-12-07T15:19:19.197Z,57.06
2022-12-07T15:21:39.891Z,57.35
2022-12-07T15:24:08.623Z,57.37
2022-12-07T15:26:36.572Z,57.79
2022-12-07T15:29:04.823Z,57.79
2022-12-07T15:31:54.485Z,58.83
2022-12-07T15:34:20.889Z,59.39
2022-12-07T15:36:50.273Z,59.78
2022-12-07T15:39:18.222Z,59.38
2022-12-07T15:41:46.405Z,59.38
2022-12-07T15:44:32.780Z,59.55
2022-12-07T15:47:01.124Z,59.40
2022-12-07T15:49:30.143Z,61.35
2022-12-07T15:51:59.738Z,60.94
2022-12-07T15:54:29.786Z,60.65
2022-12-07T15:56:58.467Z,60.21
2022-12-07T15:59:28.629Z,60.45
2022-12-07T16:01:56.910Z,60.20
2022-12-07T16:04:25.051Z,60.37
2022-12-07T16:06:53.183Z,59.83
2022-12-07T16:09:22.852Z,59.58
2022-12-07T16:11:51.269Z,59.72
2022-12-07T16:14:19.262Z,59.74
2022-12-07T16:16:47.282Z,60.14
2022-12-07T16:19:15.533Z,60.14
2022-12-07T16:21:44.174Z,59.87
2022-12-07T16:24:13.705Z,59.42
2022-12-07T16:26:49.422Z,59.63
2022-12-07T16:29:20.016Z,59.78
2022-12-07T16:31:48.416Z,59.98
2022-12-07T16:34:16.904Z,59.59
2022-12-07T16:39:33.401Z,61.31
2022-12-07T16:42:02.893Z,62.66
2022-12-07T16:44:31.716Z,62.83
2022-12-07T16:47:00.052Z,63.69
2022-12-07T16:49:29.034Z,63.77
2022-12-07T16:52:19.311Z,64.40
2022-12-07T16:54:45.201Z,64.52
2022-12-07T16:57:21.590Z,64.14
2022-12-07T16:59:50.944Z,65.53
2022-12-07T17:02:19.028Z,65.88
2022-12-07T17:04:47.026Z,65.41
2022-12-07T17:07:15.150Z,65.14
2022-12-07T17:09:43.128Z,66.23
2022-12-07T17:12:11.269Z,66.45
2022-12-07T17:14:58.325Z,66.28
2022-12-07T17:17:26.372Z,67.76
2022-12-07T17:19:54.575Z,66.52
2022-12-07T17:22:22.624Z,66.47
2022-12-07T17:24:50.668Z,66.73
2022-12-07T17:27:18.710Z,66.78
2022-12-07T17:29:48.081Z,66.53
2022-12-07T17:32:16.852Z,66.61
2022-12-07T17:34:45.215Z,67.39
2022-12-07T17:37:13.178Z,67.67
2022-12-07T17:39:41.781Z,69.00
2022-12-07T17:42:28.306Z,68.74
2022-12-07T17:44:57.682Z,69.53
2022-12-07T17:47:25.813Z,69.02
2022-12-07T17:49:53.977Z,70.16
2022-12-07T17:52:39.769Z,70.37
2022-12-07T17:55:10.779Z,68.97
2022-12-07T17:57:38.855Z,68.31
2022-12-07T18:00:09.922Z,70.46
2022-12-07T18:02:38.083Z,71.06
2022-12-07T18:05:06.767Z,70.51
2022-12-07T18:07:34.988Z,70.27
2022-12-07T18:10:03.057Z,70.13
2022-12-07T18:12:31.367Z,70.08
2022-12-07T18:14:59.345Z,69.46
2022-12-07T18:17:28.728Z,69.53
2022-12-07T18:19:56.798Z,68.30
2022-12-07T18:22:25.250Z,69.01
2022-12-07T18:24:53.254Z,69.97
2022-12-07T18:27:21.203Z,69.36
2022-12-07T18:29:49.283Z,69.55
2022-12-07T18:32:17.390Z,69.70
2022-12-07T18:34:46.899Z,69.90
2022-12-07T18:37:14.872Z,69.68
2022-12-07T18:39:43.240Z,70.36
2022-12-07T18:42:11.328Z,70.83
2022-12-07T18:44:39.340Z,70.34
2022-12-07T18:47:09.841Z,69.03
2022-12-07T18:49:37.922Z,69.91
2022-12-07T18:52:07.504Z,69.81
2022-12-07T18:54:35.817Z,69.53
2022-12-07T18:57:03.955Z,69.38
2022-12-07T18:59:50.206Z,69.70
2022-12-07T19:02:19.146Z,68.46
2022-12-07T19:04:47.428Z,69.43
2022-12-07T19:07:17.401Z,69.11
2022-12-07T19:09:45.769Z,69.36
2022-12-07T19:12:15.208Z,69.16
2022-12-07T19:14:43.313Z,68.74
2022-12-07T19:17:13.566Z,68.86
2022-12-07T19:19:44.093Z,69.04
2022-12-07T19:22:13.781Z,68.09
2022-12-07T19:24:46.484Z,67.80
2022-12-07T19:27:15.573Z,68.96
2022-12-07T19:29:44.274Z,68.54
2022-12-07T19:32:12.975Z,67.73
2022-12-07T19:34:43.227Z,67.93
2022-12-07T19:37:12.583Z,67.92
2022-12-07T19:39:41.759Z,66.97
2022-12-07T19:42:11.847Z,67.00
2022-12-07T19:44:40.115Z,67.61
2022-12-07T19:47:08.228Z,66.68
2022-12-07T19:49:37.398Z,67.30
2022-12-07T19:52:08.682Z,67.29
2022-12-07T19:54:37.474Z,68.07
2022-12-07T19:57:07.275Z,67.54
2022-12-07T19:59:36.900Z,67.32
2022-12-07T20:02:04.953Z,67.68
2022-12-07T20:04:35.773Z,66.92
2022-12-07T20:07:04.111Z,67.08
2022-12-07T20:09:32.439Z,67.19
2022-12-07T20:12:17.807Z,66.65
2022-12-07T20:14:47.396Z,67.03
2022-12-07T20:17:15.641Z,67.75
2022-12-07T20:19:43.722Z,67.50
2022-12-07T20:22:11.902Z,67.55
2022-12-07T20:24:39.996Z,67.27
2022-12-07T20:27:08.396Z,67.34
2022-12-07T20:29:36.483Z,67.70
2022-12-07T20:32:06.536Z,68.77
2022-12-07T20:34:34.539Z,67.57
2022-12-07T20:37:02.663Z,68.11
2022-12-07T20:39:30.912Z,68.92
2022-12-07T20:42:16.016Z,68.21
2022-12-07T20:44:44.204Z,68.41
2022-12-07T20:47:13.689Z,68.21
2022-12-07T20:49:41.705Z,67.98
2022-12-07T20:52:09.730Z,68.33
2022-12-07T20:54:37.858Z,67.71
2022-12-07T20:57:05.832Z,68.05
2022-12-07T20:59:38.097Z,67.30
2022-12-07T21:02:13.677Z,68.19
2022-12-07T21:04:42.076Z,69.06
2022-12-07T21:07:10.206Z,69.21
2022-12-07T21:09:38.393Z,69.01
2022-12-07T21:12:11.077Z,69.66
2022-12-07T21:14:40.944Z,68.72
2022-12-07T21:17:08.950Z,69.33
2022-12-07T21:19:38.969Z,69.04
2022-12-07T21:22:07.100Z,68.65
2022-12-07T21:24:35.280Z,69.02
2022-12-07T21:27:03.429Z,68.15
2022-12-07T21:29:43.280Z,68.34
2022-12-07T21:32:13.466Z,68.82
2022-12-07T21:34:42.996Z,68.87
2022-12-07T21:37:11.348Z,69.29
2022-12-07T21:39:39.330Z,69.12
2022-12-07T21:42:07.417Z,69.69
2022-12-07T21:44:35.734Z,70.41
2022-12-07T21:47:04.226Z,69.70
2022-12-07T21:49:35.496Z,68.92
2022-12-07T21:52:05.321Z,69.24
2022-12-07T21:54:34.132Z,70.73
2022-12-07T21:57:02.117Z,71.28
2022-12-07T21:59:30.321Z,70.87
2022-12-07T22:01:58.439Z,70.78
2022-12-07T22:04:27.683Z,71.13
2022-12-07T22:07:14.424Z,71.70
2022-12-07T22:09:44.019Z,72.09
2022-12-07T22:12:12.191Z,71.37
2022-12-07T22:14:57.333Z,71.94
2022-12-07T22:17:25.295Z,70.59
2022-12-07T22:19:53.454Z,70.67
2022-12-07T22:22:21.491Z,71.20
2022-12-07T22:24:51.426Z,71.66
2022-12-07T22:27:19.575Z,71.77
2022-12-07T22:29:47.763Z,71.68
2022-12-07T22:32:46.659Z,71.91
2022-12-07T22:35:05.198Z,72.96
2022-12-07T22:37:34.291Z,73.27
2022-12-07T22:40:03.771Z,74.10
2022-12-07T22:42:32.010Z,74.02
2022-12-07T22:45:00.131Z,73.13
2022-12-07T22:47:29.754Z,73.00
2022-12-07T22:49:57.738Z,73.13
2022-12-07T22:52:25.783Z,73.38
2022-12-07T22:54:53.728Z,73.17
2022-12-07T22:57:23.182Z,72.25
2022-12-07T22:59:51.317Z,72.27
2022-12-07T23:02:19.777Z,71.83
2022-12-07T23:04:47.733Z,72.58
2022-12-07T23:07:15.940Z,71.47
2022-12-07T23:09:44.048Z,72.22
2022-12-07T23:12:29.539Z,70.75
2022-12-07T23:14:59.052Z,71.06
2022-12-07T23:17:27.025Z,71.43
2022-12-07T23:19:56.316Z,71.16
2022-12-07T23:22:24.673Z,71.06
2022-12-07T23:24:52.869Z,70.91
2022-12-07T23:27:20.832Z,72.03
2022-12-07T23:29:48.852Z,71.84
2022-12-07T23:32:18.343Z,71.02
2022-12-07T23:34:46.304Z,71.77
2022-12-07T23:37:14.286Z,71.40
2022-12-07T23:39:42.519Z,71.46
2022-12-07T23:42:10.562Z,72.14
2022-12-07T23:44:38.496Z,72.17
2022-12-07T23:47:06.674Z,72.37
2022-12-07T23:49:36.235Z,72.44
2022-12-07T23:52:04.552Z,72.23
2022-12-07T23:54:32.663Z,71.85
2022-12-07T23:57:00.635Z,71.99
2022-12-07T23:59:28.706Z,71.87
